sensor_id;sensor_type;location;lat;lon;timestamp;P1;durP1;ratioP1;P2;durP2;ratioP2
23754;SDS011;12057;52.042;6.830;2022-12-10T00:04:38;160.73;;;46.27;;
23754;SDS011;12057;52.042;6.830;2022-12-10T00:14:39;156.30;;;45.27;;
23754;SDS011;12057;52.042;6.830;2022-12-10T00:24:41;165.37;;;47.07;;
23754;SDS011;12057;52.042;6.830;2022-12-10T00:29:42;139.65;;;45.60;;
23754;SDS011;12057;52.042;6.830;2022-12-10T00:34:43;172.23;;;46.90;;
23754;SDS011;12057;52.042;6.830;2022-12-10T00:39:43;155.93;;;47.20;;
23754;SDS011;12057;52.042;6.830;2022-12-10T00:49:45;151.10;;;46.70;;
23754;SDS011;12057;52.042;6.830;2022-12-10T00:59:46;154.50;;;46.07;;
23754;SDS011;12057;52.042;6.830;2022-12-10T01:09:51;153.43;;;41.65;;
23754;SDS011;12057;52.042;6.830;2022-12-10T01:14:52;142.68;;;43.50;;
23754;SDS011;12057;52.042;6.830;2022-12-10T01:24:53;140.77;;;42.47;;
23754;SDS011;12057;52.042;6.830;2022-12-10T01:34:54;158.10;;;43.73;;
23754;SDS011;12057;52.042;6.830;2022-12-10T01:44:57;149.10;;;43.50;;
23754;SDS011;12057;52.042;6.830;2022-12-10T01:49:59;153.48;;;45.88;;
23754;SDS011;12057;52.042;6.830;2022-12-10T01:55:01;138.35;;;41.67;;
23754;SDS011;12057;52.042;6.830;2022-12-10T02:15:43;159.20;;;42.92;;
23754;SDS011;12057;52.042;6.830;2022-12-10T02:20:57;149.27;;;44.28;;
23754;SDS011;12057;52.042;6.830;2022-12-10T02:26:48;161.07;;;45.35;;
23754;SDS011;12057;52.042;6.830;2022-12-10T02:32:41;146.27;;;44.13;;
23754;SDS011;12057;52.042;6.830;2022-12-10T02:37:47;147.20;;;44.40;;
23754;SDS011;12057;52.042;6.830;2022-12-10T02:42:51;159.05;;;45.13;;
23754;SDS011;12057;52.042;6.830;2022-12-10T02:47:53;170.95;;;46.50;;
23754;SDS011;12057;52.042;6.830;2022-12-10T02:52:57;182.15;;;48.70;;
23754;SDS011;12057;52.042;6.830;2022-12-10T03:13:36;157.52;;;44.08;;
23754;SDS011;12057;52.042;6.830;2022-12-10T03:18:47;159.95;;;41.55;;
23754;SDS011;12057;52.042;6.830;2022-12-10T03:23:55;164.70;;;42.13;;
23754;SDS011;12057;52.042;6.830;2022-12-10T03:34:01;133.48;;;40.22;;
23754;SDS011;12057;52.042;6.830;2022-12-10T03:39:02;143.40;;;41.60;;
23754;SDS011;12057;52.042;6.830;2022-12-10T03:44:05;122.18;;;38.55;;
23754;SDS011;12057;52.042;6.830;2022-12-10T03:54:06;122.23;;;34.53;;
23754;SDS011;12057;52.042;6.830;2022-12-10T04:04:08;127.13;;;36.27;;
23754;SDS011;12057;52.042;6.830;2022-12-10T04:09:10;127.10;;;38.80;;
23754;SDS011;12057;52.042;6.830;2022-12-10T04:14:12;121.57;;;38.00;;
23754;SDS011;12057;52.042;6.830;2022-12-10T04:19:31;126.43;;;38.60;;
23754;SDS011;12057;52.042;6.830;2022-12-10T04:24:33;134.82;;;40.05;;
23754;SDS011;12057;52.042;6.830;2022-12-10T04:29:54;138.75;;;39.20;;
23754;SDS011;12057;52.042;6.830;2022-12-10T04:34:55;127.38;;;39.38;;
23754;SDS011;12057;52.042;6.830;2022-12-10T04:39:57;119.05;;;35.78;;
23754;SDS011;12057;52.042;6.830;2022-12-10T04:45:00;128.38;;;39.75;;
23754;SDS011;12057;52.042;6.830;2022-12-10T04:50:01;106.68;;;34.28;;
23754;SDS011;12057;52.042;6.830;2022-12-10T04:55:02;116.22;;;37.33;;
23754;SDS011;12057;52.042;6.830;2022-12-10T05:00:03;114.65;;;38.47;;
23754;SDS011;12057;52.042;6.830;2022-12-10T05:05:04;107.03;;;34.70;;
23754;SDS011;12057;52.042;6.830;2022-12-10T05:10:06;117.78;;;38.17;;
23754;SDS011;12057;52.042;6.830;2022-12-10T05:15:07;123.45;;;37.33;;
23754;SDS011;12057;52.042;6.830;2022-12-10T05:20:08;121.13;;;37.03;;
23754;SDS011;12057;52.042;6.830;2022-12-10T05:25:09;120.57;;;37.17;;
23754;SDS011;12057;52.042;6.830;2022-12-10T05:30:10;121.93;;;37.13;;
23754;SDS011;12057;52.042;6.830;2022-12-10T05:35:11;116.00;;;37.22;;
23754;SDS011;12057;52.042;6.830;2022-12-10T05:40:11;114.18;;;36.67;;
23754;SDS011;12057;52.042;6.830;2022-12-10T05:45:12;126.03;;;35.95;;
23754;SDS011;12057;52.042;6.830;2022-12-10T05:50:13;99.43;;;33.75;;
23754;SDS011;12057;52.042;6.830;2022-12-10T05:55:14;111.55;;;32.80;;
23754;SDS011;12057;52.042;6.830;2022-12-10T06:00:15;110.32;;;33.78;;
23754;SDS011;12057;52.042;6.830;2022-12-10T06:05:16;114.72;;;35.38;;
23754;SDS011;12057;52.042;6.830;2022-12-10T06:10:17;127.50;;;38.88;;
23754;SDS011;12057;52.042;6.830;2022-12-10T06:15:17;122.85;;;37.10;;
23754;SDS011;12057;52.042;6.830;2022-12-10T06:20:18;115.25;;;34.20;;
23754;SDS011;12057;52.042;6.830;2022-12-10T06:25:19;117.75;;;33.35;;
23754;SDS011;12057;52.042;6.830;2022-12-10T06:30:20;119.15;;;35.25;;
23754;SDS011;12057;52.042;6.830;2022-12-10T06:35:20;123.60;;;37.72;;
23754;SDS011;12057;52.042;6.830;2022-12-10T06:40:21;128.88;;;38.42;;
23754;SDS011;12057;52.042;6.830;2022-12-10T06:45:22;119.57;;;37.03;;
23754;SDS011;12057;52.042;6.830;2022-12-10T06:50:23;116.68;;;34.97;;
23754;SDS011;12057;52.042;6.830;2022-12-10T06:55:24;126.13;;;35.13;;
23754;SDS011;12057;52.042;6.830;2022-12-10T07:00:24;119.55;;;37.88;;
23754;SDS011;12057;52.042;6.830;2022-12-10T07:05:25;116.03;;;35.97;;
23754;SDS011;12057;52.042;6.830;2022-12-10T07:10:26;113.07;;;38.13;;
23754;SDS011;12057;52.042;6.830;2022-12-10T07:15:27;136.05;;;41.95;;
23754;SDS011;12057;52.042;6.830;2022-12-10T07:20:29;144.23;;;40.95;;
23754;SDS011;12057;52.042;6.830;2022-12-10T07:25:30;127.35;;;42.17;;
23754;SDS011;12057;52.042;6.830;2022-12-10T07:30:31;138.73;;;38.47;;
23754;SDS011;12057;52.042;6.830;2022-12-10T07:35:33;151.80;;;43.63;;
23754;SDS011;12057;52.042;6.830;2022-12-10T07:40:34;160.80;;;41.85;;
23754;SDS011;12057;52.042;6.830;2022-12-10T07:45:35;154.52;;;41.97;;
23754;SDS011;12057;52.042;6.830;2022-12-10T07:50:35;163.73;;;43.30;;
23754;SDS011;12057;52.042;6.830;2022-12-10T07:55:36;143.52;;;43.08;;
23754;SDS011;12057;52.042;6.830;2022-12-10T08:00:37;162.32;;;46.22;;
23754;SDS011;12057;52.042;6.830;2022-12-10T08:10:38;154.37;;;41.47;;
23754;SDS011;12057;52.042;6.830;2022-12-10T08:15:40;162.05;;;43.00;;
23754;SDS011;12057;52.042;6.830;2022-12-10T08:25:41;154.47;;;40.90;;
23754;SDS011;12057;52.042;6.830;2022-12-10T08:35:46;149.77;;;43.65;;
23754;SDS011;12057;52.042;6.830;2022-12-10T08:45:48;163.60;;;42.33;;
23754;SDS011;12057;52.042;6.830;2022-12-10T08:55:53;156.63;;;42.03;;
23754;SDS011;12057;52.042;6.830;2022-12-10T09:00:53;191.32;;;46.60;;
23754;SDS011;12057;52.042;6.830;2022-12-10T09:05:55;171.30;;;46.42;;
23754;SDS011;12057;52.042;6.830;2022-12-10T09:15:56;167.00;;;42.57;;
23754;SDS011;12057;52.042;6.830;2022-12-10T09:25:58;170.87;;;43.27;;
23754;SDS011;12057;52.042;6.830;2022-12-10T09:36:02;171.75;;;46.50;;
23754;SDS011;12057;52.042;6.830;2022-12-10T09:51:53;171.32;;;45.13;;
23754;SDS011;12057;52.042;6.830;2022-12-10T09:56:57;153.43;;;40.85;;
23754;SDS011;12057;52.042;6.830;2022-12-10T10:07:02;173.93;;;43.90;;
23754;SDS011;12057;52.042;6.830;2022-12-10T10:12:10;167.77;;;45.00;;
23754;SDS011;12057;52.042;6.830;2022-12-10T10:22:35;181.65;;;47.83;;
23754;SDS011;12057;52.042;6.830;2022-12-10T10:27:37;173.25;;;44.70;;
23754;SDS011;12057;52.042;6.830;2022-12-10T10:37:39;182.30;;;44.90;;
23754;SDS011;12057;52.042;6.830;2022-12-10T10:42:42;194.57;;;48.45;;
23754;SDS011;12057;52.042;6.830;2022-12-10T10:47:45;182.15;;;46.63;;
23754;SDS011;12057;52.042;6.830;2022-12-10T10:52:45;186.23;;;45.78;;
23754;SDS011;12057;52.042;6.830;2022-12-10T11:02:47;200.07;;;47.17;;
23754;SDS011;12057;52.042;6.830;2022-12-10T11:07:48;209.20;;;49.33;;
23754;SDS011;12057;52.042;6.830;2022-12-10T11:12:58;210.07;;;48.08;;
23754;SDS011;12057;52.042;6.830;2022-12-10T11:18:20;211.07;;;49.97;;
23754;SDS011;12057;52.042;6.830;2022-12-10T11:23:30;205.77;;;49.85;;
23754;SDS011;12057;52.042;6.830;2022-12-10T11:28:57;198.52;;;44.42;;
23754;SDS011;12057;52.042;6.830;2022-12-10T12:27:33;216.95;;;49.38;;
23754;SDS011;12057;52.042;6.830;2022-12-10T12:37:57;220.50;;;48.85;;
23754;SDS011;12057;52.042;6.830;2022-12-10T12:43:02;237.05;;;50.70;;
23754;SDS011;12057;52.042;6.830;2022-12-10T12:48:17;241.93;;;50.90;;
23754;SDS011;12057;52.042;6.830;2022-12-10T12:53:27;215.63;;;50.35;;
23754;SDS011;12057;52.042;6.830;2022-12-10T13:08:46;227.65;;;51.58;;
23754;SDS011;12057;52.042;6.830;2022-12-10T13:24:22;213.50;;;50.25;;
23754;SDS011;12057;52.042;6.830;2022-12-10T13:29:55;205.13;;;46.50;;
23754;SDS011;12057;52.042;6.830;2022-12-10T13:35:27;229.82;;;48.88;;
23754;SDS011;12057;52.042;6.830;2022-12-10T13:46:19;220.82;;;49.47;;
23754;SDS011;12057;52.042;6.830;2022-12-10T13:56:40;232.05;;;50.45;;
23754;SDS011;12057;52.042;6.830;2022-12-10T14:06:51;220.60;;;50.88;;
23754;SDS011;12057;52.042;6.830;2022-12-10T14:12:27;204.73;;;47.88;;
23754;SDS011;12057;52.042;6.830;2022-12-10T14:17:24;214.07;;;48.83;;
23754;SDS011;12057;52.042;6.830;2022-12-10T14:22:35;211.40;;;53.13;;
23754;SDS011;12057;52.042;6.830;2022-12-10T14:27:38;240.52;;;58.47;;
23754;SDS011;12057;52.042;6.830;2022-12-10T14:32:39;222.25;;;51.75;;
23754;SDS011;12057;52.042;6.830;2022-12-10T14:37:41;222.15;;;49.28;;
23754;SDS011;12057;52.042;6.830;2022-12-10T14:42:44;201.25;;;48.85;;
23754;SDS011;12057;52.042;6.830;2022-12-10T14:47:48;219.65;;;47.90;;
23754;SDS011;12057;52.042;6.830;2022-12-10T14:52:52;221.77;;;47.10;;
23754;SDS011;12057;52.042;6.830;2022-12-10T15:03:00;227.80;;;50.03;;
23754;SDS011;12057;52.042;6.830;2022-12-10T15:08:15;220.10;;;48.13;;
23754;SDS011;12057;52.042;6.830;2022-12-10T15:18:38;204.35;;;49.80;;
23754;SDS011;12057;52.042;6.830;2022-12-10T15:23:39;198.00;;;45.63;;
23754;SDS011;12057;52.042;6.830;2022-12-10T15:28:41;196.93;;;44.58;;
23754;SDS011;12057;52.042;6.830;2022-12-10T15:33:43;188.77;;;44.70;;
23754;SDS011;12057;52.042;6.830;2022-12-10T15:38:53;203.27;;;46.57;;
23754;SDS011;12057;52.042;6.830;2022-12-10T15:49:01;192.32;;;49.60;;
23754;SDS011;12057;52.042;6.830;2022-12-10T15:54:12;264.67;;;67.43;;
23754;SDS011;12057;52.042;6.830;2022-12-10T15:59:19;219.63;;;47.28;;
23754;SDS011;12057;52.042;6.830;2022-12-10T16:04:20;233.43;;;49.40;;
23754;SDS011;12057;52.042;6.830;2022-12-10T16:09:21;213.77;;;48.80;;
23754;SDS011;12057;52.042;6.830;2022-12-10T16:14:22;197.63;;;47.80;;
23754;SDS011;12057;52.042;6.830;2022-12-10T16:19:23;232.88;;;48.78;;
23754;SDS011;12057;52.042;6.830;2022-12-10T16:24:24;231.73;;;49.05;;
23754;SDS011;12057;52.042;6.830;2022-12-10T16:29:25;225.70;;;47.25;;
23754;SDS011;12057;52.042;6.830;2022-12-10T16:34:25;212.20;;;45.40;;
23754;SDS011;12057;52.042;6.830;2022-12-10T16:39:26;217.95;;;49.25;;
23754;SDS011;12057;52.042;6.830;2022-12-10T16:44:27;200.38;;;44.42;;
23754;SDS011;12057;52.042;6.830;2022-12-10T16:49:28;213.13;;;45.50;;
23754;SDS011;12057;52.042;6.830;2022-12-10T16:54:28;224.88;;;43.95;;
23754;SDS011;12057;52.042;6.830;2022-12-10T16:59:29;251.23;;;46.95;;
23754;SDS011;12057;52.042;6.830;2022-12-10T17:04:30;244.40;;;47.22;;
23754;SDS011;12057;52.042;6.830;2022-12-10T17:09:31;228.60;;;47.22;;
23754;SDS011;12057;52.042;6.830;2022-12-10T17:19:36;209.95;;;45.00;;
23754;SDS011;12057;52.042;6.830;2022-12-10T17:24:38;229.18;;;46.33;;
23754;SDS011;12057;52.042;6.830;2022-12-10T17:29:41;208.13;;;45.42;;
23754;SDS011;12057;52.042;6.830;2022-12-10T17:34:49;224.73;;;44.28;;
23754;SDS011;12057;52.042;6.830;2022-12-10T17:39:50;220.70;;;44.33;;
23754;SDS011;12057;52.042;6.830;2022-12-10T17:44:51;253.30;;;49.17;;
23754;SDS011;12057;52.042;6.830;2022-12-10T17:49:51;252.75;;;48.22;;
23754;SDS011;12057;52.042;6.830;2022-12-10T17:59:53;247.53;;;45.17;;
23754;SDS011;12057;52.042;6.830;2022-12-10T18:04:54;227.35;;;46.17;;
23754;SDS011;12057;52.042;6.830;2022-12-10T18:09:55;239.60;;;48.67;;
23754;SDS011;12057;52.042;6.830;2022-12-10T18:19:56;255.50;;;50.00;;
23754;SDS011;12057;52.042;6.830;2022-12-10T18:24:57;221.18;;;45.70;;
23754;SDS011;12057;52.042;6.830;2022-12-10T18:29:57;198.82;;;39.95;;
23754;SDS011;12057;52.042;6.830;2022-12-10T18:34:58;226.05;;;45.92;;
23754;SDS011;12057;52.042;6.830;2022-12-10T18:39:59;217.15;;;43.85;;
23754;SDS011;12057;52.042;6.830;2022-12-10T18:44:59;254.73;;;46.75;;
23754;SDS011;12057;52.042;6.830;2022-12-10T18:55:01;224.10;;;48.10;;
23754;SDS011;12057;52.042;6.830;2022-12-10T19:00:02;213.43;;;44.40;;
23754;SDS011;12057;52.042;6.830;2022-12-10T19:05:10;248.07;;;47.70;;
23754;SDS011;12057;52.042;6.830;2022-12-10T19:15:14;208.77;;;44.42;;
23754;SDS011;12057;52.042;6.830;2022-12-10T19:20:19;198.25;;;43.60;;
23754;SDS011;12057;52.042;6.830;2022-12-10T19:25:22;208.85;;;43.72;;
23754;SDS011;12057;52.042;6.830;2022-12-10T19:30:23;249.93;;;46.35;;
23754;SDS011;12057;52.042;6.830;2022-12-10T19:35:26;220.63;;;46.17;;
23754;SDS011;12057;52.042;6.830;2022-12-10T19:40:29;221.15;;;46.13;;
23754;SDS011;12057;52.042;6.830;2022-12-10T19:45:32;216.18;;;40.92;;
23754;SDS011;12057;52.042;6.830;2022-12-10T19:50:34;224.77;;;41.08;;
23754;SDS011;12057;52.042;6.830;2022-12-10T19:55:35;213.77;;;41.15;;
23754;SDS011;12057;52.042;6.830;2022-12-10T20:00:35;215.15;;;40.05;;
23754;SDS011;12057;52.042;6.830;2022-12-10T20:10:37;196.07;;;38.23;;
23754;SDS011;12057;52.042;6.830;2022-12-10T20:15:38;205.35;;;39.17;;
23754;SDS011;12057;52.042;6.830;2022-12-10T20:25:39;186.03;;;35.50;;
23754;SDS011;12057;52.042;6.830;2022-12-10T20:30:44;160.00;;;33.95;;
23754;SDS011;12057;52.042;6.830;2022-12-10T20:35:44;140.57;;;29.95;;
23754;SDS011;12057;52.042;6.830;2022-12-10T20:40:45;154.18;;;32.78;;
23754;SDS011;12057;52.042;6.830;2022-12-10T20:45:46;183.95;;;48.28;;
23754;SDS011;12057;52.042;6.830;2022-12-10T20:50:47;159.18;;;33.85;;
23754;SDS011;12057;52.042;6.830;2022-12-10T20:55:47;141.70;;;29.95;;
23754;SDS011;12057;52.042;6.830;2022-12-10T21:00:48;149.75;;;27.95;;
23754;SDS011;12057;52.042;6.830;2022-12-10T21:05:49;144.93;;;29.92;;
23754;SDS011;12057;52.042;6.830;2022-12-10T21:10:50;152.18;;;30.27;;
23754;SDS011;12057;52.042;6.830;2022-12-10T21:15:51;176.95;;;32.92;;
23754;SDS011;12057;52.042;6.830;2022-12-10T21:20:54;146.65;;;30.63;;
23754;SDS011;12057;52.042;6.830;2022-12-10T21:25:56;160.88;;;31.10;;
23754;SDS011;12057;52.042;6.830;2022-12-10T21:30:58;145.32;;;28.35;;
23754;SDS011;12057;52.042;6.830;2022-12-10T21:35:59;133.32;;;27.15;;
23754;SDS011;12057;52.042;6.830;2022-12-10T21:41:00;136.40;;;28.85;;
23754;SDS011;12057;52.042;6.830;2022-12-10T21:46:25;120.05;;;25.98;;
23754;SDS011;12057;52.042;6.830;2022-12-10T21:51:26;122.13;;;28.05;;
23754;SDS011;12057;52.042;6.830;2022-12-10T21:56:27;141.15;;;29.73;;
23754;SDS011;12057;52.042;6.830;2022-12-10T22:01:28;136.27;;;30.52;;
23754;SDS011;12057;52.042;6.830;2022-12-10T22:06:29;123.90;;;26.50;;
23754;SDS011;12057;52.042;6.830;2022-12-10T22:11:29;120.75;;;27.27;;
23754;SDS011;12057;52.042;6.830;2022-12-10T22:16:30;138.30;;;27.85;;
23754;SDS011;12057;52.042;6.830;2022-12-10T22:26:32;124.03;;;26.90;;
23754;SDS011;12057;52.042;6.830;2022-12-10T22:31:32;129.00;;;27.55;;
23754;SDS011;12057;52.042;6.830;2022-12-10T22:36:33;136.52;;;32.25;;
23754;SDS011;12057;52.042;6.830;2022-12-10T22:46:38;118.50;;;26.58;;
23754;SDS011;12057;52.042;6.830;2022-12-10T22:51:39;126.05;;;26.70;;
23754;SDS011;12057;52.042;6.830;2022-12-10T22:56:39;113.43;;;24.00;;
23754;SDS011;12057;52.042;6.830;2022-12-10T23:06:41;134.23;;;25.83;;
23754;SDS011;12057;52.042;6.830;2022-12-10T23:17:02;134.23;;;25.48;;
23754;SDS011;12057;52.042;6.830;2022-12-10T23:22:03;119.35;;;25.45;;
23754;SDS011;12057;52.042;6.830;2022-12-10T23:27:04;128.27;;;25.90;;
23754;SDS011;12057;52.042;6.830;2022-12-10T23:37:05;137.70;;;24.70;;
23754;SDS011;12057;52.042;6.830;2022-12-10T23:42:07;146.45;;;24.98;;
23754;SDS011;12057;52.042;6.830;2022-12-10T23:47:07;126.03;;;23.92;;
23754;SDS011;12057;52.042;6.830;2022-12-10T23:57:09;177.57;;;37.47;;
